< < Back
Terminal Aerodrome Forecast


Current Version              Previous Versions:   1  2  3  4  5  6  7  8  9  

Terminal Aerodrome Forecast

978
FTUS44 KMOB 301000 AAA
TAFMOB
TAF AMD
KMOB 301052Z 3011/0106 36003KT P6SM FEW050
     FM301400 05006KT P6SM SCT009 BKN015=



Latest METAR

155
SAUS80 KWBC 301200
MTRMOB
METAR KMOB 301156Z 04003KT 3SM BR OVC005 21/21 A2992 RMK AO2 SLP129
6//// 7//// T02060206 10222 20200


USA.gov is the U.S. government's official web portal to all federal, state and local government web resources and services.